createdAt,value
2022-09-06T00:00:35.315Z,19.60
2022-09-06T00:03:02.607Z,19.50
2022-09-06T00:05:29.731Z,19.50
2022-09-06T00:07:58.536Z,19.50
2022-09-06T00:10:25.265Z,19.50
2022-09-06T00:12:51.893Z,19.50
2022-09-06T00:15:18.626Z,19.50
2022-09-06T00:17:47.990Z,19.40
2022-09-06T00:20:16.961Z,19.40
2022-09-06T00:22:43.559Z,19.40
2022-09-06T00:25:10.425Z,19.40
2022-09-06T00:27:39.288Z,19.40
2022-09-06T00:30:06.100Z,19.30
2022-09-06T00:32:33.055Z,19.30
2022-09-06T00:35:01.795Z,19.20
2022-09-06T00:37:30.524Z,19.30
2022-09-06T00:39:57.151Z,19.30
2022-09-06T00:42:23.787Z,19.20
2022-09-06T00:44:50.580Z,19.20
2022-09-06T00:47:17.527Z,19.10
2022-09-06T00:49:46.218Z,19.10
2022-09-06T00:52:14.317Z,19.10
2022-09-06T00:54:41.206Z,19.00
2022-09-06T00:57:07.922Z,19.00
2022-09-06T00:59:37.895Z,19.00
2022-09-06T01:02:05.576Z,18.90
2022-09-06T01:04:33.049Z,18.90
2022-09-06T01:07:08.974Z,18.90
2022-09-06T01:09:40.789Z,18.90
2022-09-06T01:12:16.789Z,18.90
2022-09-06T01:15:03.641Z,18.80
2022-09-06T01:17:38.715Z,18.80
2022-09-06T01:20:11.090Z,18.80
2022-09-06T01:22:56.515Z,18.80
2022-09-06T01:25:25.848Z,18.80
2022-09-06T01:28:11.019Z,18.80
2022-09-06T01:30:38.922Z,18.80
2022-09-06T01:33:24.361Z,18.80
2022-09-06T01:35:54.006Z,18.80
2022-09-06T01:38:20.796Z,18.80
2022-09-06T01:40:49.557Z,18.80
2022-09-06T01:43:22.148Z,18.70
2022-09-06T01:45:48.702Z,18.70
2022-09-06T01:48:15.301Z,18.60
2022-09-06T01:50:54.435Z,18.60
2022-09-06T01:53:24.001Z,18.60
2022-09-06T01:55:50.561Z,18.50
2022-09-06T01:58:17.098Z,18.50
2022-09-06T02:00:55.737Z,18.50
2022-09-06T02:03:22.284Z,18.50
2022-09-06T02:05:51.339Z,18.50
2022-09-06T02:08:21.763Z,18.50
2022-09-06T02:10:48.397Z,18.50
2022-09-06T02:13:15.341Z,18.50
2022-09-06T02:15:47.422Z,18.50
2022-09-06T02:18:18.895Z,18.50
2022-09-06T02:20:50.703Z,18.40
2022-09-06T02:23:20.673Z,18.30
2022-09-06T02:25:53.486Z,18.20
2022-09-06T02:28:23.059Z,18.20
2022-09-06T02:30:51.452Z,18.20
2022-09-06T02:33:19.910Z,18.20
2022-09-06T02:35:49.867Z,18.10
2022-09-06T02:38:17.572Z,18.10
2022-09-06T02:40:45.443Z,18.20
2022-09-06T02:43:15.713Z,18.20
2022-09-06T02:45:42.348Z,18.10
2022-09-06T02:48:08.993Z,18.10
2022-09-06T02:50:36.976Z,18.10
2022-09-06T02:53:09.376Z,18.10
2022-09-06T02:55:36.431Z,18.10
2022-09-06T02:58:06.577Z,18.10
2022-09-06T03:00:33.441Z,18.10
2022-09-06T03:03:00.225Z,18.00
2022-09-06T03:05:27.549Z,18.10
2022-09-06T03:07:54.488Z,18.10
2022-09-06T03:10:24.904Z,18.10
2022-09-06T03:12:54.746Z,18.10
2022-09-06T03:15:23.709Z,18.00
2022-09-06T03:17:50.267Z,18.10
2022-09-06T03:20:16.905Z,18.10
2022-09-06T03:22:46.001Z,18.10
2022-09-06T03:25:15.125Z,18.20
2022-09-06T03:27:43.157Z,18.20
2022-09-06T03:30:09.989Z,18.20
2022-09-06T03:32:36.606Z,18.20
2022-09-06T03:35:05.496Z,18.20
2022-09-06T03:37:32.064Z,18.20
2022-09-06T03:39:58.790Z,18.20
2022-09-06T03:42:26.581Z,18.20
2022-09-06T03:44:55.413Z,18.20
2022-09-06T03:47:21.976Z,18.20
2022-09-06T03:49:48.664Z,18.30
2022-09-06T03:52:17.609Z,18.30
2022-09-06T03:54:44.206Z,18.30
2022-09-06T03:57:13.265Z,18.30
2022-09-06T03:59:39.963Z,18.30
2022-09-06T04:02:06.637Z,18.30
2022-09-06T04:04:33.445Z,18.30
2022-09-06T04:07:00.009Z,18.30
2022-09-06T04:09:26.614Z,18.30
2022-09-06T04:11:53.222Z,18.40
2022-09-06T04:14:19.823Z,18.40
2022-09-06T04:16:46.448Z,18.40
2022-09-06T04:19:13.360Z,18.40
2022-09-06T04:21:40.049Z,18.40
2022-09-06T04:24:08.741Z,18.40
2022-09-06T04:26:35.509Z,18.40
2022-09-06T04:29:02.114Z,18.40
2022-09-06T04:31:28.821Z,18.40
2022-09-06T04:33:55.433Z,18.40
2022-09-06T04:36:24.283Z,18.40
2022-09-06T04:38:53.338Z,18.40
2022-09-06T04:41:21.035Z,18.30
2022-09-06T04:43:50.098Z,18.30
2022-09-06T04:46:21.895Z,18.20
2022-09-06T04:48:51.464Z,18.30
2022-09-06T04:51:18.430Z,18.30
2022-09-06T04:53:45.510Z,18.30
2022-09-06T04:56:13.719Z,18.30
2022-09-06T04:58:40.284Z,18.40
2022-09-06T05:01:09.311Z,18.30
2022-09-06T05:03:35.989Z,18.40
2022-09-06T05:06:12.921Z,18.40
2022-09-06T05:08:40.231Z,18.30
2022-09-06T05:11:10.772Z,18.30
2022-09-06T05:13:37.579Z,18.30
2022-09-06T05:16:05.505Z,18.20
2022-09-06T05:18:32.313Z,18.30
2022-09-06T05:21:01.306Z,18.30
2022-09-06T05:23:30.523Z,18.20
2022-09-06T05:25:57.221Z,18.20
2022-09-06T05:28:26.100Z,18.20
2022-09-06T05:30:52.678Z,18.20
2022-09-06T05:33:20.755Z,18.20
2022-09-06T05:35:48.378Z,18.10
2022-09-06T05:38:15.301Z,18.10
2022-09-06T05:40:41.884Z,18.10
2022-09-06T05:43:10.997Z,18.10
2022-09-06T05:45:37.684Z,18.00
2022-09-06T05:48:04.347Z,18.00
2022-09-06T05:50:30.946Z,18.00
2022-09-06T05:52:57.582Z,18.00
2022-09-06T05:55:24.176Z,18.00
2022-09-06T05:57:50.779Z,18.00
2022-09-06T06:00:17.628Z,18.10
2022-09-06T06:02:47.974Z,18.00
2022-09-06T06:05:14.879Z,18.10
2022-09-06T06:07:41.465Z,18.10
2022-09-06T06:10:10.451Z,18.10
2022-09-06T06:12:39.163Z,18.10
2022-09-06T06:15:06.020Z,18.10
2022-09-06T06:17:32.677Z,18.20
2022-09-06T06:19:59.318Z,18.20
2022-09-06T06:22:25.952Z,18.20
2022-09-06T06:24:52.594Z,18.20
2022-09-06T06:27:19.213Z,18.30
2022-09-06T06:29:48.186Z,18.30
2022-09-06T06:32:14.754Z,18.30
2022-09-06T06:34:41.345Z,18.40
2022-09-06T06:37:07.982Z,18.50
2022-09-06T06:39:34.667Z,18.50
2022-09-06T06:42:01.311Z,18.60
2022-09-06T06:44:28.338Z,18.60
2022-09-06T06:46:57.796Z,18.70
2022-09-06T06:49:24.646Z,18.70
2022-09-06T06:51:51.243Z,18.80
2022-09-06T06:54:17.872Z,18.90
2022-09-06T06:56:45.531Z,18.90
2022-09-06T06:59:12.123Z,19.00
2022-09-06T07:01:39.067Z,19.10
2022-09-06T07:04:10.376Z,19.20
2022-09-06T07:12:27.694Z,23.80
2022-09-06T07:14:54.338Z,25.50
2022-09-06T07:17:23.431Z,27.60
2022-09-06T07:22:36.939Z,28.50
2022-09-06T07:25:04.615Z,29.20
2022-09-06T07:27:47.283Z,29.80
2022-09-06T07:30:14.990Z,30.30
2022-09-06T07:32:41.624Z,31.50
2022-09-06T07:35:08.482Z,31.50
2022-09-06T07:37:37.442Z,32.00
2022-09-06T07:40:06.503Z,32.00
2022-09-06T07:42:36.250Z,32.00
2022-09-06T07:45:04.212Z,31.90
2022-09-06T07:53:12.956Z,31.40
2022-09-06T07:55:42.399Z,31.30
2022-09-06T07:58:08.987Z,31.20
2022-09-06T08:00:35.947Z,30.90
2022-09-06T08:03:02.572Z,30.60
2022-09-06T08:11:07.459Z,29.10
2022-09-06T08:13:34.954Z,28.50
2022-09-06T08:16:11.296Z,28.20
2022-09-06T08:18:40.314Z,27.90
2022-09-06T08:21:12.588Z,27.70
2022-09-06T08:23:50.733Z,27.50
2022-09-06T08:26:17.730Z,27.40
2022-09-06T08:28:44.419Z,27.20
2022-09-06T08:31:11.032Z,27.10
2022-09-06T08:33:38.617Z,26.90
2022-09-06T08:36:08.649Z,26.60
2022-09-06T08:38:37.832Z,26.40
2022-09-06T08:41:09.024Z,26.20
2022-09-06T08:43:36.358Z,26.10
2022-09-06T08:46:04.192Z,26.10
2022-09-06T08:48:32.848Z,26.00
2022-09-06T08:51:11.433Z,26.00
2022-09-06T08:53:41.461Z,26.10
2022-09-06T08:56:08.016Z,26.10
2022-09-06T08:58:37.584Z,26.00
2022-09-06T09:01:07.268Z,25.90
2022-09-06T09:03:36.598Z,25.80
2022-09-06T09:06:05.414Z,25.80
2022-09-06T09:08:35.097Z,25.80
2022-09-06T09:11:06.389Z,25.80
2022-09-06T09:13:42.450Z,25.80
2022-09-06T09:16:09.133Z,25.80
2022-09-06T09:18:40.078Z,25.70
2022-09-06T09:21:06.812Z,25.60
2022-09-06T09:23:36.016Z,25.50
2022-09-06T09:26:07.275Z,25.50
2022-09-06T09:28:33.978Z,25.60
2022-09-06T09:31:00.647Z,25.70
2022-09-06T09:33:36.874Z,25.80
2022-09-06T09:36:13.174Z,25.80
2022-09-06T09:38:43.670Z,25.90
2022-09-06T09:41:10.971Z,25.90
2022-09-06T09:43:38.493Z,25.90
2022-09-06T09:46:08.135Z,25.90
2022-09-06T09:48:34.738Z,26.00
2022-09-06T09:51:27.277Z,26.00
2022-09-06T09:53:55.817Z,26.10
2022-09-06T09:56:29.751Z,26.20
2022-09-06T09:58:57.929Z,26.30
2022-09-06T10:01:29.633Z,26.30
2022-09-06T10:09:38.689Z,26.40
2022-09-06T10:12:05.926Z,26.40
2022-09-06T10:14:39.524Z,26.50
2022-09-06T10:17:06.211Z,26.50
2022-09-06T10:19:38.289Z,26.50
2022-09-06T10:22:30.223Z,26.50
2022-09-06T10:25:02.599Z,26.50
2022-09-06T10:27:29.252Z,26.50
2022-09-06T10:30:08.914Z,26.50
2022-09-06T10:32:48.361Z,26.60
2022-09-06T10:35:17.663Z,26.70
2022-09-06T10:38:02.959Z,26.70
2022-09-06T10:40:34.726Z,26.70
2022-09-06T10:43:03.230Z,26.70
2022-09-06T10:45:32.853Z,26.70
2022-09-06T10:48:13.859Z,26.80
2022-09-06T10:50:59.701Z,26.90
2022-09-06T10:53:38.511Z,27.00
2022-09-06T10:56:07.375Z,27.10
2022-09-06T11:01:37.340Z,27.10
2022-09-06T11:04:08.085Z,27.20
2022-09-06T11:06:46.429Z,27.30
2022-09-06T11:09:12.980Z,27.30
2022-09-06T11:11:42.512Z,27.40
2022-09-06T11:14:14.072Z,27.50
2022-09-06T11:16:53.802Z,27.60
2022-09-06T11:19:40.660Z,27.60
2022-09-06T11:22:26.107Z,27.60
2022-09-06T11:25:11.320Z,27.60
2022-09-06T11:27:40.118Z,27.70
2022-09-06T11:30:07.170Z,27.70
2022-09-06T11:32:48.468Z,27.80
2022-09-06T11:35:25.913Z,27.90
2022-09-06T11:38:03.313Z,27.90
2022-09-06T11:40:36.802Z,28.00
2022-09-06T11:43:03.771Z,28.00
2022-09-06T11:45:47.643Z,27.90
2022-09-06T11:48:23.089Z,28.00
2022-09-06T11:50:58.863Z,28.00
2022-09-06T11:53:30.052Z,28.10
2022-09-06T11:55:59.352Z,28.10
2022-09-06T11:58:33.604Z,28.00
2022-09-06T12:01:12.046Z,28.10
2022-09-06T12:06:38.864Z,28.20
2022-09-06T12:09:24.232Z,28.10
2022-09-06T12:11:51.497Z,28.20
2022-09-06T12:14:27.325Z,28.30
2022-09-06T12:16:56.663Z,28.30
2022-09-06T12:19:44.324Z,28.40
2022-09-06T12:22:37.546Z,28.30
2022-09-06T12:25:05.743Z,28.20
2022-09-06T12:27:33.855Z,28.20
2022-09-06T12:30:04.306Z,28.30
2022-09-06T12:32:46.821Z,28.50
2022-09-06T12:38:15.743Z,28.40
2022-09-06T12:40:49.246Z,28.40
2022-09-06T12:43:17.033Z,28.40
2022-09-06T12:45:44.756Z,28.40
2022-09-06T12:48:13.234Z,28.40
2022-09-06T12:50:40.512Z,28.50
2022-09-06T12:53:26.487Z,28.60
2022-09-06T12:56:06.954Z,28.60
2022-09-06T12:58:36.235Z,28.80
2022-09-06T13:01:16.152Z,28.70
2022-09-06T13:03:51.123Z,28.70
2022-09-06T13:06:24.650Z,28.80
2022-09-06T13:08:55.522Z,28.80
2022-09-06T13:11:30.680Z,29.00
2022-09-06T13:13:59.931Z,29.00
2022-09-06T13:16:28.018Z,28.90
2022-09-06T13:18:54.831Z,28.80
2022-09-06T13:21:32.798Z,28.70
2022-09-06T13:23:59.710Z,28.70
2022-09-06T13:26:34.263Z,28.80
2022-09-06T13:29:19.950Z,28.90
2022-09-06T13:31:47.909Z,29.00
2022-09-06T13:34:28.081Z,29.10
2022-09-06T13:36:59.224Z,29.10
2022-09-06T13:39:32.062Z,29.00
2022-09-06T13:42:22.043Z,29.00
2022-09-06T13:44:48.748Z,28.90
2022-09-06T13:47:15.364Z,28.80
2022-09-06T13:49:41.967Z,28.80
2022-09-06T13:52:10.984Z,28.80
2022-09-06T13:54:39.984Z,28.70
2022-09-06T13:57:06.578Z,28.70
2022-09-06T13:59:33.147Z,28.70
2022-09-06T14:02:07.600Z,28.70
2022-09-06T14:04:36.917Z,28.70
2022-09-06T14:07:04.372Z,28.70
2022-09-06T14:09:31.212Z,28.70
2022-09-06T14:11:57.815Z,28.70
2022-09-06T14:14:26.663Z,28.80
2022-09-06T14:16:54.026Z,28.80
2022-09-06T14:19:20.621Z,28.80
2022-09-06T14:21:47.261Z,28.80
2022-09-06T14:24:13.853Z,29.00
2022-09-06T14:26:40.536Z,29.10
2022-09-06T14:29:08.088Z,29.10
2022-09-06T14:31:34.830Z,29.10
2022-09-06T14:34:01.892Z,29.00
2022-09-06T14:36:31.474Z,28.90
2022-09-06T14:38:59.534Z,28.80
2022-09-06T14:41:26.600Z,28.70
2022-09-06T14:43:54.273Z,28.70
2022-09-06T14:46:21.996Z,28.60
2022-09-06T14:48:51.414Z,28.60
2022-09-06T14:51:21.929Z,28.50
2022-09-06T14:53:49.882Z,28.50
2022-09-06T14:56:16.666Z,28.50
2022-09-06T14:58:43.662Z,28.30
2022-09-06T15:01:13.056Z,28.30
2022-09-06T15:03:43.974Z,28.20
2022-09-06T15:06:11.096Z,28.10
2022-09-06T15:08:38.064Z,28.10
2022-09-06T15:11:08.011Z,28.10
2022-09-06T15:13:38.172Z,28.00
2022-09-06T15:16:05.758Z,28.00
2022-09-06T15:18:34.553Z,28.00
2022-09-06T15:21:13.363Z,28.00
2022-09-06T15:23:40.344Z,28.00
2022-09-06T15:26:08.135Z,28.20
2022-09-06T15:28:38.799Z,28.20
2022-09-06T15:31:06.205Z,28.30
2022-09-06T15:33:33.683Z,28.30
2022-09-06T15:36:06.269Z,28.30
2022-09-06T15:38:33.391Z,28.30
2022-09-06T15:41:08.208Z,28.30
2022-09-06T15:43:36.223Z,28.20
2022-09-06T15:46:03.319Z,28.40
2022-09-06T15:48:39.122Z,28.40
2022-09-06T15:51:05.779Z,28.20
2022-09-06T15:53:32.399Z,28.10
2022-09-06T15:55:59.560Z,27.90
2022-09-06T15:58:27.348Z,27.80
2022-09-06T16:01:04.738Z,27.80
2022-09-06T16:03:31.765Z,27.70
2022-09-06T16:08:50.699Z,27.70
2022-09-06T16:11:17.950Z,27.70
2022-09-06T16:13:45.411Z,27.80
2022-09-06T16:16:13.541Z,27.70
2022-09-06T16:18:42.391Z,27.70
2022-09-06T16:21:10.511Z,27.60
2022-09-06T16:23:37.272Z,27.60
2022-09-06T16:26:04.598Z,27.60
2022-09-06T16:28:32.776Z,27.60
2022-09-06T16:31:09.560Z,27.60
2022-09-06T16:33:37.030Z,27.50
2022-09-06T16:36:09.362Z,27.40
2022-09-06T16:38:36.867Z,27.40
2022-09-06T16:41:12.712Z,27.40
2022-09-06T16:43:39.289Z,27.40
2022-09-06T16:46:08.656Z,27.40
2022-09-06T16:48:35.515Z,27.40
2022-09-06T16:51:28.258Z,27.40
2022-09-06T16:53:55.387Z,27.30
2022-09-06T16:56:26.334Z,27.30
2022-09-06T16:58:54.353Z,27.20
2022-09-06T17:01:21.400Z,27.20
2022-09-06T17:03:48.328Z,27.10
2022-09-06T17:06:15.343Z,27.00
2022-09-06T17:08:41.999Z,27.00
2022-09-06T17:11:09.729Z,27.00
2022-09-06T17:13:36.755Z,27.00
2022-09-06T17:16:22.892Z,26.90
2022-09-06T17:18:49.879Z,26.90
2022-09-06T17:21:16.539Z,26.80
2022-09-06T17:23:43.513Z,26.80
2022-09-06T17:26:10.463Z,26.70
2022-09-06T17:28:40.683Z,26.60
2022-09-06T17:31:07.826Z,26.50
2022-09-06T17:33:34.935Z,26.40
2022-09-06T17:36:11.599Z,26.30
2022-09-06T17:38:38.814Z,26.10
2022-09-06T17:41:05.761Z,26.10
2022-09-06T17:43:32.512Z,26.00
2022-09-06T17:46:01.696Z,26.00
2022-09-06T17:48:28.917Z,25.90
2022-09-06T17:50:56.699Z,25.90
2022-09-06T17:53:23.475Z,25.90
2022-09-06T17:55:52.201Z,25.80
2022-09-06T17:58:19.864Z,25.80
2022-09-06T18:00:46.495Z,25.80
2022-09-06T18:03:13.091Z,25.80
2022-09-06T18:05:42.869Z,25.80
2022-09-06T18:08:09.497Z,25.70
2022-09-06T18:10:37.568Z,25.70
2022-09-06T18:13:04.810Z,25.60
2022-09-06T18:15:34.644Z,25.50
2022-09-06T18:18:01.237Z,25.50
2022-09-06T18:20:27.953Z,25.40
2022-09-06T18:22:54.899Z,25.40
2022-09-06T18:25:21.550Z,25.40
2022-09-06T18:27:50.873Z,25.30
2022-09-06T18:30:17.621Z,25.30
2022-09-06T18:32:44.743Z,25.20
2022-09-06T18:35:11.428Z,25.10
2022-09-06T18:37:38.636Z,25.10
2022-09-06T18:40:06.080Z,25.10
2022-09-06T18:42:33.202Z,25.00
2022-09-06T18:45:02.000Z,25.00
2022-09-06T18:47:30.978Z,24.90
2022-09-06T18:49:57.653Z,24.80
2022-09-06T18:52:24.283Z,24.80
2022-09-06T18:54:50.974Z,24.80
2022-09-06T18:57:17.605Z,24.70
2022-09-06T18:59:46.862Z,24.60
2022-09-06T19:02:13.696Z,24.60
2022-09-06T19:04:40.447Z,24.60
2022-09-06T19:07:07.212Z,24.50
2022-09-06T19:09:36.305Z,24.60
2022-09-06T19:12:04.803Z,24.50
2022-09-06T19:14:33.656Z,24.50
2022-09-06T19:17:00.274Z,24.40
2022-09-06T19:19:26.909Z,24.30
2022-09-06T19:21:53.521Z,24.30
2022-09-06T19:24:24.425Z,24.30
2022-09-06T19:26:52.703Z,24.20
2022-09-06T19:29:19.411Z,24.10
2022-09-06T19:31:47.077Z,24.10
2022-09-06T19:34:15.362Z,24.10
2022-09-06T19:36:42.895Z,24.00
2022-09-06T19:39:10.476Z,24.00
2022-09-06T19:41:38.456Z,23.90
2022-09-06T19:44:07.672Z,23.90
2022-09-06T19:46:35.120Z,23.80
2022-09-06T19:49:02.257Z,23.70
2022-09-06T19:51:32.990Z,23.70
2022-09-06T19:54:00.351Z,23.60
2022-09-06T19:56:29.983Z,23.60
2022-09-06T19:58:57.884Z,23.50
2022-09-06T20:01:26.235Z,23.50
2022-09-06T20:03:52.952Z,23.40
2022-09-06T20:06:19.665Z,23.40
2022-09-06T20:08:48.994Z,23.30
2022-09-06T20:11:15.587Z,23.30
2022-09-06T20:13:42.772Z,23.20
2022-09-06T20:16:09.950Z,23.10
2022-09-06T20:18:37.295Z,23.00
2022-09-06T20:21:07.247Z,23.00
2022-09-06T20:23:34.441Z,22.90
2022-09-06T20:26:01.023Z,22.90
2022-09-06T20:28:28.028Z,22.90
2022-09-06T20:30:59.714Z,22.80
2022-09-06T20:33:26.561Z,22.80
2022-09-06T20:35:54.052Z,22.80
2022-09-06T20:38:20.662Z,22.70
2022-09-06T20:40:47.422Z,22.70
2022-09-06T20:43:13.997Z,22.60
2022-09-06T20:45:40.633Z,22.60
2022-09-06T20:48:07.577Z,22.50
2022-09-06T20:50:34.231Z,22.50
2022-09-06T20:53:03.222Z,22.40
2022-09-06T20:55:32.308Z,22.50
2022-09-06T20:57:58.972Z,22.30
2022-09-06T21:00:25.568Z,22.30
2022-09-06T21:02:52.174Z,22.30
2022-09-06T21:05:18.802Z,22.20
2022-09-06T21:07:47.708Z,22.20
2022-09-06T21:10:14.421Z,22.20
2022-09-06T21:12:41.023Z,22.10
2022-09-06T21:15:07.732Z,22.10
2022-09-06T21:17:34.324Z,22.10
2022-09-06T21:20:04.578Z,22.10
2022-09-06T21:22:31.199Z,22.10
2022-09-06T21:24:57.769Z,22.00
2022-09-06T21:27:24.350Z,22.00
2022-09-06T21:29:50.984Z,21.90
2022-09-06T21:32:20.195Z,21.90
2022-09-06T21:34:46.772Z,21.80
2022-09-06T21:37:13.997Z,21.80
2022-09-06T21:39:40.647Z,21.80
2022-09-06T21:42:07.253Z,21.70
2022-09-06T21:44:33.856Z,21.80
2022-09-06T21:47:01.210Z,21.70
2022-09-06T21:49:27.899Z,21.70
2022-09-06T21:51:54.581Z,21.70
2022-09-06T21:54:23.760Z,21.70
2022-09-06T21:56:50.445Z,21.70
2022-09-06T21:59:17.062Z,21.60
2022-09-06T22:01:46.422Z,21.60
2022-09-06T22:04:13.688Z,21.50
2022-09-06T22:06:40.718Z,21.50
2022-09-06T22:09:11.394Z,21.40
2022-09-06T22:11:39.531Z,21.40
2022-09-06T22:14:07.394Z,21.40
2022-09-06T22:16:36.124Z,21.40
2022-09-06T22:19:05.925Z,21.40
2022-09-06T22:21:35.205Z,21.30
2022-09-06T22:24:03.041Z,21.30
2022-09-06T22:26:31.356Z,21.30
2022-09-06T22:29:00.791Z,21.30
2022-09-06T22:31:28.333Z,21.20
2022-09-06T22:33:55.083Z,21.20
2022-09-06T22:36:23.709Z,21.20
2022-09-06T22:38:53.073Z,21.20
2022-09-06T22:41:19.661Z,21.20
2022-09-06T22:43:48.555Z,21.10
2022-09-06T22:46:17.327Z,21.10
2022-09-06T22:48:44.330Z,21.10
2022-09-06T22:51:10.930Z,21.00
2022-09-06T22:53:40.122Z,21.00
2022-09-06T22:56:06.795Z,21.00
2022-09-06T22:58:34.806Z,21.00
2022-09-06T23:01:05.973Z,21.00
2022-09-06T23:03:32.663Z,21.00
2022-09-06T23:26:47.507Z,20.70
2022-09-06T23:29:21.042Z,20.70
2022-09-06T23:31:47.697Z,20.70
2022-09-06T23:34:14.530Z,20.70
2022-09-06T23:36:43.334Z,20.70
2022-09-06T23:39:10.002Z,20.60
2022-09-06T23:41:39.079Z,20.60
2022-09-06T23:44:08.140Z,20.50
2022-09-06T23:46:34.854Z,20.50
2022-09-06T23:49:01.458Z,20.50
2022-09-06T23:51:28.063Z,20.40
2022-09-06T23:53:54.713Z,20.50
2022-09-06T23:56:22.324Z,20.40
2022-09-06T23:58:48.919Z,20.40
